Time;durP1;ratioP1;P1;durP2;ratioP2;P2;SDS_P1;SDS_P2;PMS_P1;PMS_P2;Temp;Humidity;BMP_temperature;BMP_pressure;BME280_temperature;BME280_humidity;BME280_pressure;Samples;Min_cycle;Max_cycle;Signal;HPM_P1;HPM_P2
2023/12/28 00:01:53;;;;;;;3.70;2.80;;;6.70;35.00;;;;;;5027734;28;20578;-67
2023/12/28 00:04:20;;;;;;;3.10;2.80;;;6.80;36.70;;;;;;5033725;28;20730;-66
2023/12/28 00:06:46;;;;;;;4.43;2.70;;;6.80;35.10;;;;;;5023268;28;20264;-67
2023/12/28 00:09:13;;;;;;;3.03;2.60;;;6.80;34.70;;;;;;5028638;28;20209;-67
2023/12/28 00:11:39;;;;;;;2.57;2.37;;;6.80;33.80;;;;;;5022556;28;20236;-67
2023/12/28 00:14:06;;;;;;;2.87;2.67;;;6.90;34.80;;;;;;5024400;28;20225;-68
2023/12/28 00:16:34;;;;;;;2.70;2.50;;;6.90;34.80;;;;;;5026121;28;20235;-67
2023/12/28 00:19:01;;;;;;;3.17;2.60;;;6.90;33.60;;;;;;5028878;28;20222;-68
2023/12/28 00:21:28;;;;;;;2.97;2.60;;;6.90;34.70;;;;;;5030910;28;20562;-67
2023/12/28 00:23:55;;;;;;;2.87;2.67;;;6.80;34.40;;;;;;5029667;28;20215;-67
2023/12/28 00:26:21;;;;;;;2.67;2.47;;;6.80;34.50;;;;;;5027041;28;20297;-66
2023/12/28 00:28:48;;;;;;;2.60;2.40;;;6.80;33.60;;;;;;5019573;28;20312;-67
2023/12/28 00:31:14;;;;;;;3.50;2.60;;;6.80;34.90;;;;;;5007724;28;20243;-66
2023/12/28 00:33:42;;;;;;;3.30;2.87;;;6.70;34.40;;;;;;5020873;28;20260;-66
2023/12/28 00:36:09;;;;;;;2.87;2.67;;;6.80;33.70;;;;;;5032010;28;20226;-66
2023/12/28 00:38:35;;;;;;;2.93;2.70;;;6.80;33.60;;;;;;5032345;28;20204;-66
2023/12/28 00:41:02;;;;;;;2.87;2.67;;;6.90;34.90;;;;;;5030687;28;20617;-67
2023/12/28 00:43:28;;;;;;;2.70;2.50;;;6.90;34.90;;;;;;5031174;28;20258;-66
2023/12/28 00:45:55;;;;;;;2.90;2.70;;;6.80;34.30;;;;;;5026545;28;20230;-67
2023/12/28 00:48:21;;;;;;;2.73;2.53;;;6.80;34.40;;;;;;5029219;28;20996;-67
2023/12/28 00:50:48;;;;;;;2.73;2.50;;;6.80;33.10;;;;;;5028028;28;20213;-67
2023/12/28 00:53:15;;;;;;;3.00;2.80;;;6.80;32.70;;;;;;5032278;28;20231;-67
2023/12/28 00:55:41;;;;;;;2.43;2.23;;;6.80;33.60;;;;;;5029655;28;20247;-67
2023/12/28 00:58:08;;;;;;;2.43;2.30;;;6.80;33.30;;;;;;5033135;28;20209;-67
2023/12/28 01:00:34;;;;;;;3.00;2.40;;;6.80;32.40;;;;;;5030496;28;20262;-68
2023/12/28 01:03:01;;;;;;;3.07;2.87;;;6.90;33.60;;;;;;5027925;28;20987;-67
2023/12/28 01:05:28;;;;;;;3.00;2.70;;;6.80;34.10;;;;;;5028545;28;20228;-67
2023/12/28 01:07:54;;;;;;;2.57;2.37;;;6.70;34.00;;;;;;5029782;28;20635;-68
2023/12/28 01:10:21;;;;;;;4.20;2.50;;;6.70;34.50;;;;;;5024197;28;20682;-67
2023/12/28 01:12:48;;;;;;;2.43;2.33;;;6.80;34.10;;;;;;5024400;28;20217;-67
2023/12/28 01:15:15;;;;;;;3.03;2.77;;;6.70;33.10;;;;;;5017865;28;20236;-67
2023/12/28 01:17:41;;;;;;;2.60;2.40;;;6.80;33.60;;;;;;5029529;28;20220;-68
2023/12/28 01:20:08;;;;;;;13.17;2.87;;;6.60;34.10;;;;;;5024401;28;20290;-67
2023/12/28 01:22:34;;;;;;;2.77;2.57;;;6.60;34.30;;;;;;5027294;28;20259;-67
2023/12/28 01:25:01;;;;;;;2.90;2.70;;;6.70;33.90;;;;;;5024265;28;20220;-68
2023/12/28 01:27:27;;;;;;;3.00;2.77;;;6.60;34.30;;;;;;5027997;28;20217;-68
2023/12/28 01:29:54;;;;;;;2.30;2.13;;;6.50;35.40;;;;;;5031765;28;20871;-67
2023/12/28 01:32:20;;;;;;;2.60;2.40;;;6.40;33.20;;;;;;5025259;28;20205;-67
2023/12/28 01:34:47;;;;;;;2.50;2.30;;;6.50;35.40;;;;;;5023393;28;20715;-67
2023/12/28 01:37:13;;;;;;;2.67;2.47;;;6.40;34.60;;;;;;5026225;28;20273;-67
2023/12/28 01:39:40;;;;;;;2.70;2.50;;;6.60;34.60;;;;;;5023762;28;20209;-67
2023/12/28 01:42:06;;;;;;;3.57;2.37;;;6.60;33.70;;;;;;5029613;28;20269;-67
2023/12/28 01:44:33;;;;;;;2.50;2.30;;;6.70;34.00;;;;;;5020508;28;20210;-67
2023/12/28 01:47:00;;;;;;;2.37;2.20;;;6.70;32.90;;;;;;5029290;28;20204;-67
2023/12/28 01:49:26;;;;;;;3.57;2.50;;;6.70;34.20;;;;;;5026586;28;20204;-67
2023/12/28 01:51:53;;;;;;;2.40;2.30;;;6.70;35.70;;;;;;5021890;28;20209;-67
2023/12/28 01:54:19;;;;;;;2.30;2.10;;;6.60;34.30;;;;;;5031288;28;20277;-68
2023/12/28 01:56:46;;;;;;;2.37;2.20;;;6.60;33.90;;;;;;5028257;28;20228;-67
2023/12/28 01:59:12;;;;;;;2.80;2.60;;;6.70;33.50;;;;;;5029953;28;20244;-67
2023/12/28 02:01:39;;;;;;;2.60;2.40;;;6.80;33.60;;;;;;5031998;28;20209;-67
2023/12/28 02:04:05;;;;;;;2.63;2.40;;;7.00;32.20;;;;;;5021546;28;20208;-68
2023/12/28 02:06:32;;;;;;;2.43;2.20;;;7.00;32.20;;;;;;5024528;28;20232;-67
2023/12/28 02:08:58;;;;;;;2.50;2.30;;;7.10;32.70;;;;;;5030011;28;20211;-67
2023/12/28 02:11:25;;;;;;;3.03;2.83;;;7.20;34.00;;;;;;5024447;28;20201;-67
2023/12/28 02:13:51;;;;;;;2.20;2.00;;;7.00;33.40;;;;;;5023366;28;20241;-67
2023/12/28 02:16:18;;;;;;;2.40;2.10;;;6.90;33.60;;;;;;5025825;28;20294;-67
2023/12/28 02:18:44;;;;;;;2.20;2.10;;;6.70;34.60;;;;;;5030540;28;20208;-68
2023/12/28 02:21:11;;;;;;;2.13;2.03;;;6.60;34.10;;;;;;5021110;28;20208;-68
2023/12/28 02:23:37;;;;;;;2.53;2.33;;;6.50;34.60;;;;;;5027112;28;20265;-68
2023/12/28 02:26:04;;;;;;;2.63;2.43;;;6.40;33.90;;;;;;5030171;28;20735;-67
2023/12/28 02:28:30;;;;;;;4.23;2.83;;;6.30;34.80;;;;;;5027808;28;20263;-67
2023/12/28 02:30:57;;;;;;;2.63;2.43;;;6.20;35.20;;;;;;5032115;28;20241;-68
2023/12/28 02:33:24;;;;;;;2.37;2.27;;;6.20;35.70;;;;;;5029655;28;20213;-68
2023/12/28 02:35:50;;;;;;;2.90;2.60;;;6.10;35.70;;;;;;5029893;28;20285;-68
2023/12/28 02:38:17;;;;;;;2.90;2.67;;;6.10;36.10;;;;;;5024241;28;20207;-66
2023/12/28 02:40:44;;;;;;;2.60;2.40;;;6.10;36.50;;;;;;5024670;28;20208;-67
2023/12/28 02:43:10;;;;;;;2.80;2.60;;;6.00;36.00;;;;;;5022453;28;20225;-67
2023/12/28 02:45:37;;;;;;;2.70;2.50;;;6.00;36.70;;;;;;5031285;28;20263;-67
2023/12/28 02:48:03;;;;;;;2.33;2.20;;;6.20;34.50;;;;;;5031612;28;20233;-67
2023/12/28 02:50:31;;;;;;;2.60;2.40;;;6.30;34.20;;;;;;5022893;28;20208;-67
2023/12/28 02:52:57;;;;;;;2.50;2.30;;;6.40;34.60;;;;;;5020692;28;20215;-66
2023/12/28 02:55:24;;;;;;;2.47;2.27;;;6.50;34.30;;;;;;5030203;28;20293;-67
2023/12/28 02:57:50;;;;;;;2.30;2.20;;;6.70;33.10;;;;;;5027599;28;20906;-67
2023/12/28 03:00:17;;;;;;;2.50;2.40;;;6.80;32.60;;;;;;5023427;28;20243;-68
2023/12/28 03:02:44;;;;;;;2.40;2.30;;;6.90;32.40;;;;;;5030993;28;20265;-67
2023/12/28 03:05:10;;;;;;;4.47;2.33;;;7.10;31.70;;;;;;5021187;28;20767;-67
2023/12/28 03:07:37;;;;;;;2.53;2.33;;;7.20;32.40;;;;;;5030934;28;20729;-67
2023/12/28 03:10:04;;;;;;;2.40;2.20;;;7.20;30.60;;;;;;5020968;28;20209;-67
2023/12/28 03:12:30;;;;;;;2.10;2.00;;;7.30;31.60;;;;;;5019720;28;20209;-66
2023/12/28 03:14:57;;;;;;;2.10;2.00;;;7.30;30.90;;;;;;5027090;28;20588;-67
2023/12/28 03:17:23;;;;;;;2.70;2.50;;;7.20;31.40;;;;;;5028158;28;20209;-67
2023/12/28 03:19:50;;;;;;;2.10;2.00;;;7.30;30.60;;;;;;5028668;28;20230;-67
2023/12/28 03:22:17;;;;;;;2.57;2.40;;;7.30;31.90;;;;;;5023664;28;20238;-67
2023/12/28 03:24:43;;;;;;;1.90;1.80;;;7.30;30.50;;;;;;5025927;28;20194;-67
2023/12/28 03:27:10;;;;;;;2.20;2.10;;;7.40;31.60;;;;;;5034053;28;20243;-67
2023/12/28 03:29:36;;;;;;;2.00;1.90;;;7.40;29.90;;;;;;5034188;28;20233;-67
2023/12/28 03:32:03;;;;;;;2.30;2.10;;;7.40;30.00;;;;;;5032837;28;20237;-67
2023/12/28 03:34:30;;;;;;;2.37;2.03;;;7.40;30.70;;;;;;5030246;28;20253;-67
2023/12/28 03:36:57;;;;;;;1.87;1.77;;;7.40;30.20;;;;;;5014705;28;20229;-67
2023/12/28 03:39:23;;;;;;;2.30;2.20;;;7.40;30.70;;;;;;5026233;28;20209;-67
2023/12/28 03:41:50;;;;;;;2.20;2.00;;;7.40;30.30;;;;;;5025654;28;20214;-67
2023/12/28 03:44:17;;;;;;;2.03;1.90;;;7.40;30.40;;;;;;5028706;28;20260;-67
2023/12/28 03:46:43;;;;;;;2.10;2.00;;;7.50;31.10;;;;;;5022660;28;20229;-66
2023/12/28 03:49:10;;;;;;;2.23;1.80;;;7.50;30.00;;;;;;5025695;28;20241;-66
2023/12/28 03:51:37;;;;;;;1.90;1.80;;;7.50;30.40;;;;;;5014293;28;20232;-66
2023/12/28 03:54:03;;;;;;;2.20;2.10;;;7.50;30.00;;;;;;5025027;28;20237;-66
2023/12/28 03:56:30;;;;;;;2.33;2.23;;;7.50;29.60;;;;;;5024225;28;20727;-67
2023/12/28 03:58:57;;;;;;;1.80;1.70;;;7.50;30.00;;;;;;5025007;28;20204;-66
2023/12/28 04:01:23;;;;;;;3.00;1.90;;;7.60;29.70;;;;;;5025351;28;20212;-66
2023/12/28 04:03:50;;;;;;;2.00;1.90;;;7.50;29.60;;;;;;5033374;28;20256;-66
2023/12/28 04:06:16;;;;;;;2.10;2.00;;;7.60;29.20;;;;;;5039699;28;20314;-67
2023/12/28 04:08:43;;;;;;;1.90;1.80;;;7.50;30.20;;;;;;5036654;28;20197;-66
2023/12/28 04:11:09;;;;;;;2.00;1.90;;;7.50;29.30;;;;;;5033344;28;20630;-66
2023/12/28 04:13:36;;;;;;;2.17;2.00;;;7.60;29.50;;;;;;5029376;28;20641;-66
2023/12/28 04:16:02;;;;;;;2.03;1.80;;;7.60;29.70;;;;;;5031185;28;20236;-66
2023/12/28 04:18:29;;;;;;;2.00;1.90;;;7.60;29.30;;;;;;5026609;28;20568;-66
2023/12/28 04:20:55;;;;;;;2.07;1.97;;;7.60;29.10;;;;;;5033257;28;20655;-67
2023/12/28 04:23:22;;;;;;;1.63;1.53;;;7.70;29.40;;;;;;5025969;28;20209;-66
2023/12/28 04:25:48;;;;;;;2.10;1.83;;;7.70;28.70;;;;;;5025497;28;20225;-67
2023/12/28 04:28:15;;;;;;;1.97;1.87;;;7.70;28.90;;;;;;5025291;28;20239;-67
2023/12/28 04:30:42;;;;;;;2.00;1.90;;;7.70;28.80;;;;;;5028808;28;20236;-66
2023/12/28 04:33:08;;;;;;;2.00;1.90;;;7.70;29.00;;;;;;5032901;28;20725;-67
2023/12/28 04:35:35;;;;;;;1.97;1.80;;;7.70;28.60;;;;;;5024106;28;20261;-66
2023/12/28 04:38:01;;;;;;;2.00;1.90;;;7.70;29.10;;;;;;5022743;28;20259;-67
2023/12/28 04:40:28;;;;;;;1.90;1.80;;;7.70;28.90;;;;;;5030697;28;20245;-67
2023/12/28 04:42:54;;;;;;;2.10;2.00;;;7.70;29.30;;;;;;5024669;28;20720;-66
2023/12/28 04:45:22;;;;;;;1.90;1.80;;;7.70;29.00;;;;;;5024725;28;20257;-66
2023/12/28 04:47:48;;;;;;;2.03;1.93;;;7.70;28.90;;;;;;5026908;28;20209;-66
2023/12/28 04:50:15;;;;;;;2.50;2.10;;;7.70;29.00;;;;;;5032874;28;20237;-67
2023/12/28 04:52:41;;;;;;;2.00;1.90;;;7.60;29.20;;;;;;5026280;28;20241;-67
2023/12/28 04:55:08;;;;;;;1.70;1.60;;;7.60;28.90;;;;;;5032010;28;20232;-66
2023/12/28 04:57:34;;;;;;;1.90;1.80;;;7.60;29.40;;;;;;5024050;28;20205;-66
2023/12/28 05:00:01;;;;;;;2.03;1.90;;;7.60;28.70;;;;;;5031528;28;20237;-66
2023/12/28 05:02:28;;;;;;;1.83;1.73;;;7.60;29.50;;;;;;5027827;28;20208;-66
2023/12/28 05:04:55;;;;;;;2.37;1.90;;;7.60;29.20;;;;;;5029913;28;20237;-66
2023/12/28 05:07:21;;;;;;;2.00;1.90;;;7.60;28.90;;;;;;5028318;28;20295;-66
2023/12/28 05:09:48;;;;;;;2.30;1.90;;;7.60;29.00;;;;;;5029002;28;20691;-66
2023/12/28 05:12:14;;;;;;;1.93;1.83;;;7.60;29.20;;;;;;5024291;28;20267;-66
2023/12/28 05:14:41;;;;;;;2.17;1.90;;;7.60;29.50;;;;;;5030355;28;20212;-67
2023/12/28 05:17:07;;;;;;;2.67;2.43;;;7.60;29.70;;;;;;5032481;28;20290;-66
2023/12/28 05:19:34;;;;;;;1.93;1.83;;;7.50;29.20;;;;;;5026646;28;20214;-68
2023/12/28 05:22:03;;;;;;;2.00;1.90;;;7.60;29.40;;;;;;5030713;28;20267;-67
2023/12/28 05:24:30;;;;;;;2.90;2.00;;;7.50;29.60;;;;;;5033271;28;20220;-67
2023/12/28 05:26:56;;;;;;;2.00;1.90;;;7.50;29.60;;;;;;5025117;28;20217;-68
2023/12/28 05:29:23;;;;;;;2.00;1.90;;;7.50;29.60;;;;;;5028426;28;20312;-68
2023/12/28 05:31:49;;;;;;;2.33;2.13;;;7.40;30.40;;;;;;5027378;28;20635;-68
2023/12/28 05:34:16;;;;;;;2.10;2.00;;;7.40;30.30;;;;;;5023966;28;20729;-67
2023/12/28 05:36:45;;;;;;;2.13;1.70;;;7.40;29.50;;;;;;5023208;28;20267;-67
2023/12/28 05:39:13;;;;;;;2.13;2.03;;;7.40;30.50;;;;;;5023109;28;20702;-68
2023/12/28 05:41:39;;;;;;;2.57;2.10;;;7.40;30.30;;;;;;5031582;28;20248;-67
2023/12/28 05:44:06;;;;;;;2.00;1.90;;;7.40;30.70;;;;;;5024057;28;20240;-68
2023/12/28 05:46:32;;;;;;;2.03;1.83;;;7.40;29.60;;;;;;5024343;28;20225;-67
2023/12/28 05:48:59;;;;;;;2.93;2.30;;;7.40;29.50;;;;;;5008691;28;20244;-68
2023/12/28 05:51:26;;;;;;;1.90;1.80;;;7.40;29.50;;;;;;5023831;28;20237;-68
2023/12/28 05:53:52;;;;;;;1.90;1.80;;;7.40;29.60;;;;;;5031474;28;20208;-67
2023/12/28 05:56:19;;;;;;;3.30;2.10;;;7.40;30.30;;;;;;5020779;28;20314;-67
2023/12/28 05:58:45;;;;;;;2.47;2.27;;;7.40;30.20;;;;;;5031101;28;20247;-67
2023/12/28 06:01:12;;;;;;;2.03;1.93;;;7.40;30.10;;;;;;5031478;28;20781;-67
2023/12/28 06:03:38;;;;;;;2.03;1.93;;;7.50;29.30;;;;;;5025255;28;20221;-68
2023/12/28 06:06:05;;;;;;;1.93;1.83;;;7.50;29.00;;;;;;5025605;28;20253;-67
2023/12/28 06:08:31;;;;;;;2.13;2.03;;;7.50;29.60;;;;;;5029706;28;20209;-68
2023/12/28 06:10:58;;;;;;;2.63;2.00;;;7.60;28.90;;;;;;5022415;28;20299;-67
2023/12/28 06:13:24;;;;;;;2.13;1.93;;;7.80;28.60;;;;;;5020255;28;20213;-67
2023/12/28 06:15:51;;;;;;;2.03;1.93;;;7.80;28.60;;;;;;5021749;28;20260;-67
2023/12/28 06:18:17;;;;;;;2.40;2.20;;;7.80;29.20;;;;;;5023811;28;20232;-67
2023/12/28 06:20:44;;;;;;;2.10;1.83;;;7.80;28.90;;;;;;5024861;28;20205;-68
2023/12/28 06:23:10;;;;;;;1.90;1.80;;;7.80;28.90;;;;;;5027349;28;20240;-67
2023/12/28 06:25:37;;;;;;;1.90;1.80;;;7.80;29.80;;;;;;5019561;28;20727;-67
2023/12/28 06:28:03;;;;;;;1.90;1.80;;;7.80;29.50;;;;;;5030606;28;20240;-67
2023/12/28 06:30:30;;;;;;;2.20;2.00;;;7.70;29.20;;;;;;5031113;28;20213;-67
2023/12/28 06:32:57;;;;;;;2.30;2.10;;;7.70;28.80;;;;;;5030961;28;20231;-66
2023/12/28 06:35:23;;;;;;;2.10;2.00;;;7.70;29.70;;;;;;5023000;28;20262;-66
2023/12/28 06:37:50;;;;;;;2.23;2.03;;;7.60;29.20;;;;;;5028130;28;20209;-66
2023/12/28 06:40:16;;;;;;;2.07;1.97;;;7.60;29.70;;;;;;5028777;28;20252;-67
2023/12/28 06:42:43;;;;;;;2.40;2.20;;;7.50;29.60;;;;;;5025267;28;20217;-67
2023/12/28 06:45:10;;;;;;;2.43;2.20;;;7.50;30.20;;;;;;5022980;28;20600;-67
2023/12/28 06:47:36;;;;;;;2.73;2.20;;;7.50;30.30;;;;;;5023251;28;20680;-66
2023/12/28 06:50:03;;;;;;;2.97;2.27;;;7.40;29.90;;;;;;5021356;28;20204;-66
2023/12/28 06:52:31;;;;;;;4.80;2.37;;;7.40;30.10;;;;;;5022714;28;20233;-67
2023/12/28 06:54:57;;;;;;;2.17;1.97;;;7.30;29.50;;;;;;5028089;28;20224;-66
2023/12/28 06:57:24;;;;;;;2.20;2.10;;;7.40;30.20;;;;;;5029446;28;20295;-66
2023/12/28 06:59:51;;;;;;;2.17;2.00;;;7.40;29.50;;;;;;5021901;28;20211;-67
2023/12/28 07:02:17;;;;;;;2.97;2.00;;;7.40;29.60;;;;;;5023338;28;20208;-66
2023/12/28 07:04:44;;;;;;;2.00;1.90;;;7.40;30.60;;;;;;5032182;28;20239;-67
2023/12/28 07:07:11;;;;;;;2.27;2.07;;;7.40;29.50;;;;;;5032785;28;20201;-67
2023/12/28 07:09:38;;;;;;;2.17;2.00;;;7.40;29.60;;;;;;5030288;28;20211;-66
2023/12/28 07:12:04;;;;;;;2.47;2.27;;;7.40;30.00;;;;;;5034731;28;20236;-67
2023/12/28 07:14:31;;;;;;;2.87;2.20;;;7.40;29.80;;;;;;5033242;28;20235;-66
2023/12/28 07:16:57;;;;;;;2.20;2.00;;;7.40;30.00;;;;;;5025867;28;20224;-67
2023/12/28 07:19:24;;;;;;;1.93;1.83;;;7.40;29.80;;;;;;5034736;28;20237;-67
2023/12/28 07:21:50;;;;;;;2.67;2.37;;;7.40;29.50;;;;;;5029471;28;20243;-67
2023/12/28 07:24:17;;;;;;;2.10;1.93;;;7.40;30.30;;;;;;5031697;28;20205;-67
2023/12/28 07:26:43;;;;;;;2.60;2.40;;;7.40;29.60;;;;;;5033667;28;20626;-66
2023/12/28 07:29:10;;;;;;;3.83;2.50;;;7.40;30.20;;;;;;5032500;28;20240;-66
2023/12/28 07:31:37;;;;;;;2.07;1.97;;;7.50;30.50;;;;;;5030401;28;20236;-67
2023/12/28 07:34:03;;;;;;;2.33;2.13;;;7.50;31.10;;;;;;5031089;28;20205;-66
2023/12/28 07:36:30;;;;;;;2.10;2.00;;;7.50;31.10;;;;;;5025889;28;20256;-67
2023/12/28 07:38:57;;;;;;;2.67;2.17;;;7.40;30.10;;;;;;5034239;28;20205;-66
2023/12/28 07:41:23;;;;;;;4.27;2.63;;;7.50;30.60;;;;;;5034178;28;20208;-66
2023/12/28 07:43:50;;;;;;;2.37;2.17;;;7.50;30.70;;;;;;5033384;28;20288;-69
2023/12/28 07:46:16;;;;;;;5.80;2.50;;;7.60;30.00;;;;;;5015824;28;20231;-67
2023/12/28 07:48:43;;;;;;;3.03;2.10;;;7.60;29.70;;;;;;5028885;28;22052;-67
2023/12/28 07:51:09;;;;;;;3.93;2.53;;;7.60;29.70;;;;;;5033575;28;20213;-68
2023/12/28 07:53:36;;;;;;;2.47;2.10;;;7.70;30.80;;;;;;5032714;28;20240;-67
2023/12/28 07:56:02;;;;;;;2.53;2.10;;;7.70;30.50;;;;;;5027156;28;20283;-67
2023/12/28 07:58:29;;;;;;;2.53;2.30;;;7.70;30.20;;;;;;5032091;28;20237;-67
2023/12/28 08:00:55;;;;;;;2.40;2.20;;;7.80;29.80;;;;;;5031524;28;20291;-67
2023/12/28 08:03:22;;;;;;;2.67;2.47;;;7.80;29.60;;;;;;5020400;28;20753;-67
2023/12/28 08:05:48;;;;;;;2.53;2.27;;;7.90;30.50;;;;;;5029823;28;20253;-68
2023/12/28 08:08:15;;;;;;;2.50;2.30;;;8.00;30.70;;;;;;5031960;28;20212;-68
2023/12/28 08:10:41;;;;;;;2.40;2.20;;;8.10;29.80;;;;;;5024968;28;20241;-67
2023/12/28 08:13:08;;;;;;;2.50;2.30;;;8.30;30.00;;;;;;5030605;28;20205;-68
2023/12/28 08:15:35;;;;;;;2.60;2.40;;;8.40;30.10;;;;;;5024710;28;20242;-68
2023/12/28 08:18:02;;;;;;;2.57;2.37;;;8.60;29.30;;;;;;5032385;28;20228;-68
2023/12/28 08:20:28;;;;;;;2.50;2.30;;;8.70;29.00;;;;;;5031937;28;20206;-67
2023/12/28 08:22:55;;;;;;;3.67;2.07;;;8.90;29.50;;;;;;5031033;28;20214;-67
2023/12/28 08:25:22;;;;;;;2.60;2.40;;;9.10;29.50;;;;;;5027318;28;20258;-67
2023/12/28 08:27:49;;;;;;;2.57;2.37;;;9.30;29.80;;;;;;5033427;28;20211;-67
2023/12/28 08:30:15;;;;;;;2.57;2.30;;;9.50;28.80;;;;;;5029735;28;20212;-66
2023/12/28 08:32:42;;;;;;;4.20;2.40;;;9.90;28.50;;;;;;5029142;28;20207;-66
2023/12/28 08:35:08;;;;;;;2.50;2.30;;;10.30;26.90;;;;;;5026040;28;20247;-66
2023/12/28 08:37:35;;;;;;;2.27;2.07;;;10.70;26.20;;;;;;5030664;28;20316;-67
2023/12/28 08:40:01;;;;;;;3.23;2.60;;;11.20;25.40;;;;;;5031243;28;20213;-67
2023/12/28 08:42:28;;;;;;;2.53;2.30;;;11.40;25.40;;;;;;5026620;28;20218;-66
2023/12/28 08:44:55;;;;;;;4.97;2.20;;;11.70;25.00;;;;;;5030244;28;20305;-66
2023/12/28 08:47:22;;;;;;;2.40;2.20;;;12.00;25.70;;;;;;5031405;28;20242;-66
2023/12/28 08:49:49;;;;;;;3.17;2.17;;;12.10;24.40;;;;;;5032273;28;20296;-67
2023/12/28 08:52:15;;;;;;;4.23;2.00;;;12.20;24.60;;;;;;5032088;28;20206;-67
2023/12/28 08:54:42;;;;;;;2.73;2.17;;;12.40;25.90;;;;;;5024221;28;20584;-67
2023/12/28 08:57:09;;;;;;;4.50;1.80;;;12.20;25.00;;;;;;5031301;28;20225;-67
2023/12/28 08:59:35;;;;;;;4.37;2.23;;;12.00;24.50;;;;;;5029909;28;20204;-67
2023/12/28 09:02:02;;;;;;;3.27;2.20;;;12.00;25.50;;;;;;5007206;28;20312;-68
2023/12/28 09:04:29;;;;;;;3.17;2.00;;;12.30;25.10;;;;;;5025536;28;20671;-67
2023/12/28 09:06:55;;;;;;;2.37;1.87;;;12.40;24.10;;;;;;5023449;28;20316;-67
2023/12/28 09:09:22;;;;;;;2.20;1.93;;;12.40;23.90;;;;;;5030237;28;20232;-67
2023/12/28 09:11:48;;;;;;;4.63;2.10;;;12.50;25.40;;;;;;5026955;28;20241;-67
2023/12/28 09:14:15;;;;;;;2.70;2.00;;;12.50;24.20;;;;;;5024922;28;20238;-67
2023/12/28 09:16:43;;;;;;;3.00;2.43;;;12.70;25.00;;;;;;5029427;28;20236;-67
2023/12/28 09:19:10;;;;;;;2.73;2.40;;;12.80;23.60;;;;;;5030423;28;20328;-67
2023/12/28 09:21:38;;;;;;;3.73;2.20;;;12.80;23.60;;;;;;5011700;28;20615;-67
2023/12/28 09:24:04;;;;;;;4.70;2.30;;;12.80;23.80;;;;;;5024515;28;20198;-67
2023/12/28 09:26:32;;;;;;;2.13;2.00;;;12.80;24.10;;;;;;5020753;28;20226;-67
2023/12/28 09:28:58;;;;;;;2.20;2.00;;;12.90;23.20;;;;;;5026312;28;20219;-67
2023/12/28 09:31:25;;;;;;;2.27;2.00;;;12.80;23.40;;;;;;5021505;28;20273;-67
2023/12/28 09:33:52;;;;;;;2.30;1.90;;;12.80;23.40;;;;;;5025315;28;20619;-68
2023/12/28 09:36:19;;;;;;;1.90;1.80;;;12.90;23.60;;;;;;5028249;28;20686;-68
2023/12/28 09:38:45;;;;;;;3.27;2.20;;;12.90;23.00;;;;;;5028687;28;20656;-68
2023/12/28 09:41:12;;;;;;;1.90;1.80;;;12.90;23.40;;;;;;5013249;28;20213;-70
2023/12/28 09:43:38;;;;;;;2.00;1.60;;;13.00;23.50;;;;;;5025382;28;20295;-69
2023/12/28 09:46:04;;;;;;;3.00;1.80;;;13.10;22.70;;;;;;5024176;28;20319;-70
2023/12/28 09:48:31;;;;;;;1.90;1.80;;;13.10;23.10;;;;;;5023427;28;20218;-71
2023/12/28 09:50:57;;;;;;;2.40;1.73;;;13.00;22.80;;;;;;5027939;28;20211;-70
2023/12/28 09:53:24;;;;;;;1.73;1.63;;;13.00;23.20;;;;;;5031681;28;20266;-69
2023/12/28 09:55:51;;;;;;;2.73;1.90;;;13.20;22.90;;;;;;5031546;28;20266;-69
2023/12/28 09:58:18;;;;;;;1.93;1.80;;;13.20;23.00;;;;;;5013713;28;20244;-69
2023/12/28 10:00:45;;;;;;;1.60;1.50;;;13.30;22.90;;;;;;5030956;28;20285;-69
2023/12/28 10:03:11;;;;;;;1.70;1.60;;;13.50;23.00;;;;;;5027498;28;20277;-69
2023/12/28 10:05:38;;;;;;;1.70;1.60;;;13.50;22.90;;;;;;5029474;28;20276;-69
2023/12/28 10:08:04;;;;;;;2.03;1.70;;;13.40;23.30;;;;;;5029104;28;20234;-69
2023/12/28 10:10:31;;;;;;;3.80;1.80;;;13.30;23.30;;;;;;5030357;28;20666;-69
2023/12/28 10:12:58;;;;;;;3.47;1.97;;;13.10;23.90;;;;;;5026552;28;20207;-69
2023/12/28 10:15:25;;;;;;;3.30;2.10;;;13.00;24.30;;;;;;5030567;28;20240;-69
2023/12/28 10:17:51;;;;;;;1.90;1.80;;;13.10;24.40;;;;;;5030354;28;20582;-69
2023/12/28 10:20:18;;;;;;;2.40;2.00;;;13.30;23.40;;;;;;5028743;28;20229;-69
2023/12/28 10:22:44;;;;;;;2.43;2.17;;;13.40;22.70;;;;;;5025966;28;20226;-69
2023/12/28 10:25:11;;;;;;;2.00;1.90;;;13.50;22.80;;;;;;5028767;28;20650;-69
2023/12/28 10:27:37;;;;;;;2.30;1.93;;;13.40;22.80;;;;;;5029988;28;20224;-69
2023/12/28 10:30:03;;;;;;;2.00;1.90;;;13.40;23.70;;;;;;5030723;28;20295;-69
2023/12/28 10:32:30;;;;;;;2.60;1.93;;;13.50;23.50;;;;;;5030824;28;20262;-69
2023/12/28 10:34:56;;;;;;;1.73;1.60;;;13.40;23.70;;;;;;5028346;28;20227;-69
2023/12/28 10:37:23;;;;;;;1.73;1.60;;;13.30;24.10;;;;;;5016129;28;20633;-69
2023/12/28 10:39:50;;;;;;;1.80;1.70;;;13.40;23.50;;;;;;5021279;28;20806;-69
2023/12/28 10:42:17;;;;;;;1.80;1.70;;;13.40;24.90;;;;;;5014264;28;20224;-69
2023/12/28 10:44:43;;;;;;;2.27;1.67;;;13.40;23.40;;;;;;5024633;28;20303;-68
2023/12/28 10:47:10;;;;;;;2.43;1.90;;;13.30;22.90;;;;;;5010948;28;20202;-69
2023/12/28 10:49:36;;;;;;;2.13;1.73;;;13.10;23.50;;;;;;5017480;28;20834;-69
2023/12/28 10:52:03;;;;;;;1.80;1.70;;;13.10;24.20;;;;;;5016452;28;22261;-68
2023/12/28 10:54:30;;;;;;;1.90;1.80;;;13.00;23.60;;;;;;5018218;28;20288;-68
2023/12/28 10:56:57;;;;;;;1.67;1.57;;;12.90;24.40;;;;;;5022347;28;20237;-68
2023/12/28 10:59:24;;;;;;;1.70;1.60;;;12.90;24.20;;;;;;5020483;28;20230;-68
2023/12/28 11:01:50;;;;;;;2.97;1.80;;;12.80;23.90;;;;;;5018007;28;20213;-68
2023/12/28 11:04:17;;;;;;;2.53;1.70;;;12.90;23.80;;;;;;5000291;28;20211;-67
2023/12/28 11:06:43;;;;;;;2.63;1.67;;;12.80;25.50;;;;;;5028651;28;20242;-68
2023/12/28 11:09:10;;;;;;;2.47;1.70;;;12.90;23.90;;;;;;5015642;28;20283;-68
2023/12/28 11:11:37;;;;;;;4.20;2.07;;;12.90;25.90;;;;;;5020093;28;20687;-68
2023/12/28 11:14:10;;;;;;;5.90;2.33;;;12.80;24.40;;;;;;5019410;28;20241;-68
2023/12/28 11:16:36;;;;;;;2.47;1.80;;;12.70;24.10;;;;;;5012195;28;20230;-68
2023/12/28 11:19:03;;;;;;;3.13;1.90;;;12.80;24.50;;;;;;5014540;28;20265;-68
2023/12/28 11:21:30;;;;;;;5.90;2.13;;;12.70;24.80;;;;;;5015663;28;20902;-68
2023/12/28 11:23:57;;;;;;;2.03;1.90;;;12.70;24.20;;;;;;5019521;28;20658;-68
2023/12/28 11:26:24;;;;;;;2.90;2.10;;;12.60;24.00;;;;;;5014719;28;20234;-68
2023/12/28 11:28:51;;;;;;;2.17;1.77;;;12.70;24.30;;;;;;5022217;28;20667;-68
2023/12/28 11:31:18;;;;;;;2.23;1.77;;;12.80;24.40;;;;;;5013953;28;20212;-68
2023/12/28 11:33:44;;;;;;;2.53;1.87;;;12.80;23.70;;;;;;5005969;28;20671;-68
2023/12/28 11:36:11;;;;;;;2.73;2.20;;;12.90;24.50;;;;;;5027329;28;20236;-69
2023/12/28 11:38:37;;;;;;;5.93;2.40;;;12.90;25.00;;;;;;5015107;28;20234;-68
2023/12/28 11:41:04;;;;;;;3.87;2.43;;;12.90;25.00;;;;;;5016780;28;20281;-68
2023/12/28 11:43:33;;;;;;;4.30;2.70;;;12.80;24.60;;;;;;5018806;28;20297;-68
2023/12/28 11:46:00;;;;;;;4.87;2.37;;;12.70;24.70;;;;;;5014779;28;20239;-68
2023/12/28 11:48:27;;;;;;;2.20;2.00;;;12.70;24.80;;;;;;5026494;28;20213;-68
2023/12/28 11:50:53;;;;;;;2.27;1.90;;;12.70;25.40;;;;;;5019379;28;20699;-68
2023/12/28 11:53:20;;;;;;;3.10;2.10;;;12.70;24.80;;;;;;5003758;28;20621;-71
2023/12/28 11:55:46;;;;;;;2.40;2.03;;;12.70;24.20;;;;;;5007510;28;20237;-69
2023/12/28 11:58:13;;;;;;;2.03;1.83;;;12.80;25.40;;;;;;5030988;28;20226;-69
2023/12/28 12:00:40;;;;;;;3.10;1.80;;;12.80;24.30;;;;;;5026688;28;20631;-69
2023/12/28 12:03:07;;;;;;;1.90;1.50;;;12.70;24.80;;;;;;5025651;28;20228;-70
2023/12/28 12:05:33;;;;;;;2.90;1.70;;;12.70;24.80;;;;;;5028700;28;20225;-70
2023/12/28 12:08:00;;;;;;;2.27;1.87;;;12.70;23.80;;;;;;5024524;28;20293;-70
2023/12/28 12:10:26;;;;;;;2.80;1.80;;;12.70;23.90;;;;;;5028686;28;20352;-69
2023/12/28 12:12:53;;;;;;;2.60;2.17;;;12.60;25.30;;;;;;5025992;28;20278;-69
2023/12/28 12:15:19;;;;;;;3.60;1.70;;;12.60;24.80;;;;;;5028124;28;20254;-69
2023/12/28 12:17:47;;;;;;;1.60;1.50;;;12.60;24.60;;;;;;5025737;28;20219;-69
2023/12/28 12:20:14;;;;;;;2.03;1.80;;;12.60;25.10;;;;;;5025440;28;20248;-68
2023/12/28 12:22:40;;;;;;;1.90;1.80;;;12.50;24.70;;;;;;5032240;28;20231;-67
2023/12/28 12:25:07;;;;;;;3.23;1.80;;;12.50;24.90;;;;;;5028833;28;20251;-68
2023/12/28 12:27:34;;;;;;;2.00;1.80;;;12.50;24.60;;;;;;5027994;28;20211;-69
2023/12/28 12:30:00;;;;;;;2.03;1.93;;;12.40;25.10;;;;;;5025629;28;20242;-69
2023/12/28 12:32:27;;;;;;;2.03;1.83;;;12.40;26.20;;;;;;5030918;28;20286;-68
2023/12/28 12:34:53;;;;;;;2.57;2.37;;;12.30;25.30;;;;;;5030790;28;20258;-69
2023/12/28 12:37:20;;;;;;;3.27;1.93;;;12.30;25.10;;;;;;5029365;28;20639;-70
2023/12/28 12:39:47;;;;;;;3.73;1.90;;;12.30;25.70;;;;;;5028427;28;20269;-67
2023/12/28 12:42:13;;;;;;;1.60;1.50;;;12.20;26.40;;;;;;5026051;28;20218;-67
2023/12/28 12:44:40;;;;;;;4.10;2.33;;;12.30;26.00;;;;;;5024927;28;20279;-69
2023/12/28 12:47:07;;;;;;;1.90;1.70;;;12.30;25.50;;;;;;5020213;28;20235;-68
2023/12/28 12:49:33;;;;;;;2.73;1.60;;;12.20;25.70;;;;;;5024000;28;20555;-69